Time;durP1;ratioP1;P1;durP2;ratioP2;P2;SDS_P1;SDS_P2;PMS_P1;PMS_P2;Temp;Humidity;BMP_temperature;BMP_pressure;BME280_temperature;BME280_humidity;BME280_pressure;Samples;Min_cycle;Max_cycle;Signal;HPM_P1;HPM_P2
2021/08/04 00:00:28;;;;;;;55.35;36.15;;;27.20;65.00;;;;;;4184666;28;20046;-57
2021/08/04 00:02:30;;;;;;;53.20;34.70;;;27.20;65.00;;;;;;4184837;28;20049;-58
2021/08/04 00:04:32;;;;;;;46.92;31.30;;;27.20;65.00;;;;;;4185029;28;20072;-58
2021/08/04 00:06:35;;;;;;;44.08;27.42;;;27.10;65.00;;;;;;4185195;28;20087;-58
2021/08/04 00:08:37;;;;;;;40.13;25.30;;;27.10;65.00;;;;;;4185025;28;20055;-58
2021/08/04 00:10:39;;;;;;;41.55;24.20;;;27.10;65.00;;;;;;4185051;28;20049;-58
2021/08/04 00:12:41;;;;;;;29.98;21.90;;;27.20;65.00;;;;;;4184737;28;20045;-59
2021/08/04 00:14:44;;;;;;;30.40;20.42;;;27.10;65.00;;;;;;4184835;28;20045;-56
2021/08/04 00:16:46;;;;;;;34.58;20.70;;;27.10;65.00;;;;;;4184716;28;20077;-56
2021/08/04 00:18:48;;;;;;;29.52;20.10;;;27.10;65.00;;;;;;4184582;28;20046;-55
2021/08/04 00:20:50;;;;;;;30.58;18.52;;;27.10;65.00;;;;;;4184410;28;20046;-56
2021/08/04 00:22:52;;;;;;;32.75;18.33;;;27.10;65.00;;;;;;4184612;28;20050;-56
2021/08/04 00:24:55;;;;;;;30.25;20.10;;;27.10;65.00;;;;;;4184480;28;20464;-48
2021/08/04 00:26:57;;;;;;;25.20;17.38;;;27.10;65.00;;;;;;4184619;28;20105;-52
2021/08/04 00:28:58;;;;;;;28.90;16.75;;;27.10;65.00;;;;;;4184438;28;20053;-51
2021/08/04 00:31:00;;;;;;;26.55;16.02;;;27.10;65.10;;;;;;4184580;28;20067;-52
2021/08/04 00:33:03;;;;;;;27.70;16.83;;;27.00;65.10;;;;;;4184163;28;20204;-52
2021/08/04 00:35:05;;;;;;;18.70;14.65;;;27.10;65.10;;;;;;4184417;28;20046;-48
2021/08/04 00:37:07;;;;;;;25.27;14.93;;;27.10;65.10;;;;;;4184418;28;20072;-51
2021/08/04 00:39:09;;;;;;;23.15;13.82;;;27.10;65.10;;;;;;4184446;28;20128;-50
2021/08/04 00:41:11;;;;;;;23.67;15.32;;;27.00;65.10;;;;;;4184585;28;20045;-55
2021/08/04 00:43:13;;;;;;;20.35;14.15;;;27.10;65.20;;;;;;4184424;28;20518;-55
2021/08/04 00:45:16;;;;;;;23.38;13.18;;;27.00;65.10;;;;;;4184587;28;20049;-55
2021/08/04 00:47:18;;;;;;;21.45;13.13;;;27.00;65.10;;;;;;4184466;28;20059;-56
2021/08/04 00:49:20;;;;;;;20.75;12.95;;;27.00;65.10;;;;;;4184320;28;20060;-54
2021/08/04 00:51:22;;;;;;;23.88;14.02;;;27.00;65.10;;;;;;4184370;28;20049;-54
2021/08/04 00:53:27;;;;;;;23.20;14.02;;;27.00;65.10;;;;;;4184288;28;20049;-54
2021/08/04 00:55:29;;;;;;;18.55;13.52;;;27.00;65.20;;;;;;4184097;28;20052;-55
2021/08/04 00:57:31;;;;;;;19.35;13.98;;;27.00;65.30;;;;;;4183238;28;20060;-56
2021/08/04 00:59:35;;;;;;;22.80;13.90;;;27.00;65.30;;;;;;4183823;28;20072;-54
2021/08/04 01:01:50;;;;;;;16.65;13.82;;;27.00;65.30;;;;;;4183813;28;20045;-53
2021/08/04 01:04:03;;;;;;;19.95;13.73;;;27.00;65.30;;;;;;4183853;28;20049;-54
2021/08/04 01:06:10;;;;;;;17.38;13.02;;;27.00;65.30;;;;;;4183921;28;20045;-55
2021/08/04 01:08:26;;;;;;;16.15;13.15;;;27.00;65.30;;;;;;4183842;28;20065;-57
2021/08/04 01:10:32;;;;;;;17.70;13.50;;;27.00;65.30;;;;;;4166437;28;20053;-57
2021/08/04 01:12:45;;;;;;;19.95;13.60;;;26.90;65.40;;;;;;4183548;28;20056;-57
2021/08/04 01:14:52;;;;;;;22.60;15.18;;;27.00;65.30;;;;;;4183568;28;20046;-57
2021/08/04 01:16:55;;;;;;;15.95;13.82;;;27.00;65.30;;;;;;4183719;28;20072;-56
2021/08/04 01:19:02;;;;;;;18.08;12.70;;;27.00;65.30;;;;;;4183587;28;20046;-57
2021/08/04 01:21:08;;;;;;;16.50;12.65;;;26.90;65.30;;;;;;4183841;28;20053;-56
2021/08/04 01:23:32;;;;;;;16.45;12.65;;;26.90;65.30;;;;;;4183583;28;20050;-57
2021/08/04 01:25:52;;;;;;;21.42;13.55;;;26.90;65.30;;;;;;4183483;28;20056;-57
2021/08/04 01:28:17;;;;;;;17.00;13.07;;;26.90;65.50;;;;;;4183189;28;20077;-56
2021/08/04 01:30:20;;;;;;;17.42;13.05;;;26.90;65.20;;;;;;4183072;28;20080;-57
2021/08/04 01:32:22;;;;;;;19.40;13.35;;;26.90;65.20;;;;;;4183094;28;20323;-57
2021/08/04 01:34:26;;;;;;;20.30;13.85;;;26.90;65.10;;;;;;4183287;28;20425;-57
2021/08/04 01:36:29;;;;;;;19.67;13.73;;;26.90;65.20;;;;;;4183351;28;20060;-57
2021/08/04 01:38:32;;;;;;;18.10;14.05;;;26.90;65.10;;;;;;4183011;28;20057;-57
2021/08/04 01:40:35;;;;;;;24.88;16.02;;;26.90;65.00;;;;;;4182990;28;20055;-57
2021/08/04 01:42:38;;;;;;;20.85;14.88;;;26.90;65.00;;;;;;4182799;28;20049;-57
2021/08/04 01:44:42;;;;;;;23.63;16.05;;;26.90;64.90;;;;;;4182828;28;20045;-57
2021/08/04 01:46:44;;;;;;;25.52;15.13;;;26.90;64.90;;;;;;4182983;28;20045;-57
2021/08/04 01:48:48;;;;;;;26.52;16.40;;;26.90;64.90;;;;;;4183156;28;20056;-57
2021/08/04 01:50:56;;;;;;;26.38;15.93;;;26.90;64.80;;;;;;4182975;28;20049;-57
2021/08/04 01:52:59;;;;;;;24.02;17.30;;;26.90;64.80;;;;;;4182869;28;20056;-55
2021/08/04 01:55:02;;;;;;;27.13;17.05;;;26.90;64.80;;;;;;4182831;28;20533;-55
2021/08/04 01:57:06;;;;;;;28.35;18.75;;;26.90;64.80;;;;;;4182666;28;20046;-54
2021/08/04 01:59:08;;;;;;;27.23;18.45;;;26.90;64.70;;;;;;4182909;28;20042;-53
2021/08/04 02:01:11;;;;;;;26.65;18.92;;;26.90;64.70;;;;;;4182754;28;20052;-54
2021/08/04 02:03:13;;;;;;;31.42;19.90;;;26.90;64.70;;;;;;4182796;28;20049;-54
2021/08/04 02:05:15;;;;;;;24.90;18.98;;;26.90;64.70;;;;;;4182800;28;20118;-53
2021/08/04 02:07:42;;;;;;;28.80;20.90;;;26.90;64.70;;;;;;4182825;28;20053;-51
2021/08/04 02:09:52;;;;;;;30.13;19.70;;;26.90;64.70;;;;;;4182897;28;20109;-53
2021/08/04 02:12:03;;;;;;;31.20;21.42;;;26.90;64.70;;;;;;4165700;28;20140;-53
2021/08/04 02:14:12;;;;;;;31.77;21.80;;;26.90;64.80;;;;;;4182632;28;20056;-49
2021/08/04 02:16:39;;;;;;;37.42;23.45;;;26.90;64.80;;;;;;4182574;28;20052;-49
2021/08/04 02:18:48;;;;;;;32.40;22.08;;;26.90;64.80;;;;;;4182276;28;20046;-52
2021/08/04 02:20:50;;;;;;;31.15;22.40;;;26.90;64.90;;;;;;4182574;28;20053;-51
2021/08/04 02:23:11;;;;;;;38.97;24.08;;;26.90;64.90;;;;;;4182469;28;20045;-48
2021/08/04 02:25:22;;;;;;;34.83;22.05;;;26.80;65.00;;;;;;4182665;28;20057;-52
2021/08/04 02:27:24;;;;;;;33.97;22.27;;;26.80;64.90;;;;;;4182472;28;20064;-50
2021/08/04 02:29:29;;;;;;;33.90;22.17;;;26.90;64.90;;;;;;4182365;28;20052;-52
2021/08/04 02:31:32;;;;;;;28.50;21.30;;;26.90;64.90;;;;;;4182379;28;20057;-53
2021/08/04 02:33:34;;;;;;;29.13;20.67;;;26.80;64.90;;;;;;4182401;28;20049;-54
2021/08/04 02:35:36;;;;;;;31.50;20.75;;;26.90;65.10;;;;;;4182046;28;20041;-55
2021/08/04 02:37:39;;;;;;;27.95;20.75;;;26.80;65.10;;;;;;4182433;28;20045;-48
2021/08/04 02:39:41;;;;;;;27.67;19.88;;;26.90;65.10;;;;;;4182574;28;20046;-49
2021/08/04 02:41:43;;;;;;;29.33;19.70;;;26.90;65.20;;;;;;4182448;28;20069;-48
2021/08/04 02:43:45;;;;;;;27.20;19.80;;;26.80;65.20;;;;;;4182280;28;20126;-47
2021/08/04 02:45:49;;;;;;;25.98;20.20;;;26.90;65.20;;;;;;4182377;28;20045;-49
2021/08/04 02:47:53;;;;;;;28.65;19.75;;;26.90;65.30;;;;;;4182300;28;20080;-50
2021/08/04 02:49:55;;;;;;;26.57;19.50;;;26.80;65.30;;;;;;4182321;28;20046;-55
2021/08/04 02:52:00;;;;;;;31.17;18.92;;;26.90;65.30;;;;;;4181853;28;20358;-57
2021/08/04 02:54:03;;;;;;;26.45;17.45;;;26.80;65.40;;;;;;4181708;28;20076;-57
2021/08/04 02:56:05;;;;;;;27.90;18.92;;;26.80;65.40;;;;;;4181750;28;20045;-57
2021/08/04 02:58:07;;;;;;;27.63;18.40;;;26.80;65.50;;;;;;4181928;28;20299;-56
2021/08/04 03:00:10;;;;;;;29.25;19.38;;;26.80;66.20;;;;;;4181709;28;20041;-56
2021/08/04 03:02:12;;;;;;;25.42;18.42;;;26.80;65.50;;;;;;4181701;28;20049;-57
2021/08/04 03:04:14;;;;;;;25.65;18.48;;;26.80;65.60;;;;;;4182347;28;20127;-56
2021/08/04 03:06:16;;;;;;;27.17;18.13;;;26.80;65.70;;;;;;4182209;28;20077;-57
2021/08/04 03:08:18;;;;;;;25.58;17.80;;;26.80;65.70;;;;;;4182352;28;20049;-56
2021/08/04 03:10:20;;;;;;;32.60;18.85;;;26.80;65.80;;;;;;4182180;28;20056;-56
2021/08/04 03:12:22;;;;;;;25.35;16.80;;;26.80;65.80;;;;;;4164885;28;20054;-54
2021/08/04 03:14:24;;;;;;;27.63;18.95;;;26.80;65.80;;;;;;4182038;28;20052;-51
2021/08/04 03:16:27;;;;;;;26.75;18.08;;;26.80;65.90;;;;;;4181504;28;20042;-53
2021/08/04 03:18:29;;;;;;;22.08;18.27;;;26.80;65.90;;;;;;4181451;28;20046;-53
2021/08/04 03:20:31;;;;;;;24.45;17.10;;;26.80;66.00;;;;;;4181140;28;20064;-52
2021/08/04 03:22:33;;;;;;;27.48;16.90;;;26.80;66.00;;;;;;4181581;28;20064;-54
2021/08/04 03:24:35;;;;;;;25.85;15.98;;;26.80;66.00;;;;;;4181441;28;20059;-54
2021/08/04 03:26:38;;;;;;;21.48;16.80;;;26.80;66.10;;;;;;4181367;28;20049;-54
2021/08/04 03:28:40;;;;;;;21.48;16.75;;;26.80;66.10;;;;;;4181192;28;20050;-53
2021/08/04 03:30:41;;;;;;;20.33;15.30;;;26.80;66.10;;;;;;4181266;28;20491;-53
2021/08/04 03:32:44;;;;;;;23.05;16.33;;;26.80;66.20;;;;;;4181404;28;20049;-54
2021/08/04 03:34:46;;;;;;;16.65;14.82;;;26.80;66.20;;;;;;4181469;28;20050;-52
2021/08/04 03:36:48;;;;;;;19.77;15.13;;;26.80;66.20;;;;;;4181427;28;20105;-55
2021/08/04 03:38:50;;;;;;;20.35;14.93;;;26.80;66.20;;;;;;4182166;28;20048;-53
2021/08/04 03:40:52;;;;;;;18.38;14.75;;;26.80;66.30;;;;;;4181979;28;20073;-53
2021/08/04 03:42:55;;;;;;;19.88;14.05;;;26.80;66.30;;;;;;4182000;28;20272;-54
2021/08/04 03:44:56;;;;;;;20.95;14.48;;;26.80;66.30;;;;;;4182066;28;20045;-54
2021/08/04 03:46:58;;;;;;;26.25;16.00;;;26.80;66.30;;;;;;4181901;28;20041;-55
2021/08/04 03:49:01;;;;;;;20.65;14.98;;;26.80;66.30;;;;;;4181863;28;20072;-52
2021/08/04 03:51:03;;;;;;;18.30;13.85;;;26.80;66.30;;;;;;4181559;28;20064;-44
2021/08/04 03:53:05;;;;;;;23.92;15.82;;;26.90;66.30;;;;;;4181740;28;20049;-43
2021/08/04 03:55:07;;;;;;;26.50;16.83;;;26.90;66.10;;;;;;4181895;28;20049;-49
2021/08/04 03:57:09;;;;;;;23.63;18.38;;;26.90;66.00;;;;;;4181565;28;20045;-50
2021/08/04 03:59:11;;;;;;;24.10;17.85;;;26.90;66.00;;;;;;4181831;28;20045;-46
2021/08/04 04:01:13;;;;;;;29.33;18.48;;;26.90;66.00;;;;;;4181551;28;20455;-48
2021/08/04 04:03:16;;;;;;;26.50;18.13;;;26.90;66.10;;;;;;4181647;28;20050;-46
2021/08/04 04:05:18;;;;;;;24.75;16.52;;;26.90;66.10;;;;;;4181841;28;20379;-47
2021/08/04 04:07:20;;;;;;;29.58;17.85;;;26.90;66.10;;;;;;4181688;28;20053;-47
2021/08/04 04:09:22;;;;;;;30.38;18.05;;;26.90;66.20;;;;;;4181599;28;20045;-44
2021/08/04 04:11:24;;;;;;;26.65;16.88;;;26.90;66.20;;;;;;4181684;28;20049;-45
2021/08/04 04:13:26;;;;;;;24.63;16.92;;;26.90;66.30;;;;;;4181698;28;20055;-45
2021/08/04 04:15:28;;;;;;;24.15;16.77;;;26.90;66.30;;;;;;4181706;28;20060;-44
2021/08/04 04:17:30;;;;;;;28.20;15.98;;;26.90;66.30;;;;;;4181646;28;20049;-45
2021/08/04 04:19:32;;;;;;;20.90;15.85;;;26.90;66.40;;;;;;4181487;28;20049;-45
2021/08/04 04:21:35;;;;;;;23.42;15.80;;;26.90;66.50;;;;;;4181511;28;20049;-43
2021/08/04 04:23:37;;;;;;;18.23;13.75;;;26.90;66.80;;;;;;4181594;28;20049;-44
2021/08/04 04:25:39;;;;;;;19.45;14.00;;;26.90;66.70;;;;;;4181401;28;20052;-45
2021/08/04 04:27:42;;;;;;;21.77;14.10;;;26.80;66.40;;;;;;4181591;28;20071;-43
2021/08/04 04:29:44;;;;;;;20.23;14.52;;;26.90;66.50;;;;;;4181551;28;20049;-44
2021/08/04 04:31:46;;;;;;;18.20;13.20;;;26.90;66.50;;;;;;4181771;28;20049;-44
2021/08/04 04:33:48;;;;;;;21.30;14.70;;;26.90;66.40;;;;;;4183992;28;20101;-46
2021/08/04 04:35:50;;;;;;;23.50;14.05;;;26.90;66.50;;;;;;4183766;28;20063;-50
2021/08/04 04:37:52;;;;;;;21.75;13.38;;;26.90;66.60;;;;;;4183965;28;20118;-47
2021/08/04 04:39:54;;;;;;;19.85;14.45;;;26.90;66.70;;;;;;4183961;28;20045;-45
2021/08/04 04:41:56;;;;;;;19.30;13.43;;;26.90;66.70;;;;;;4183740;28;20052;-45
2021/08/04 04:43:59;;;;;;;19.15;14.23;;;26.90;66.70;;;;;;4183453;28;20064;-52
2021/08/04 04:46:01;;;;;;;17.33;13.77;;;26.90;66.80;;;;;;4183647;28;20063;-51
2021/08/04 04:48:04;;;;;;;18.25;13.48;;;26.90;66.90;;;;;;4183624;28;20077;-50
2021/08/04 04:50:06;;;;;;;19.63;14.05;;;26.90;67.00;;;;;;4183814;28;20049;-51
2021/08/04 04:52:12;;;;;;;19.08;13.40;;;26.90;67.00;;;;;;4183782;28;20368;-46
2021/08/04 04:54:14;;;;;;;22.73;15.23;;;26.90;67.00;;;;;;4183667;28;20046;-46
2021/08/04 04:56:16;;;;;;;16.92;13.05;;;26.90;66.90;;;;;;4183399;28;20045;-47
2021/08/04 04:58:18;;;;;;;17.65;12.70;;;26.90;67.00;;;;;;4183499;28;20049;-47
2021/08/04 05:00:20;;;;;;;17.20;12.45;;;26.90;67.00;;;;;;4183408;28;20105;-47
2021/08/04 05:02:22;;;;;;;19.88;13.45;;;26.90;67.00;;;;;;4183572;28;20436;-46
2021/08/04 05:04:24;;;;;;;18.35;12.45;;;26.90;67.10;;;;;;4183624;28;20059;-53
2021/08/04 05:06:26;;;;;;;18.55;12.20;;;26.90;67.10;;;;;;4183332;28;20060;-47
2021/08/04 05:08:28;;;;;;;14.18;12.70;;;26.90;67.20;;;;;;4183378;28;20049;-48
2021/08/04 05:10:30;;;;;;;18.80;13.23;;;26.90;67.10;;;;;;4182924;28;20050;-45
2021/08/04 05:12:32;;;;;;;15.88;11.77;;;26.90;67.20;;;;;;4183316;28;20211;-47
2021/08/04 05:14:34;;;;;;;16.02;12.32;;;26.90;67.20;;;;;;4183332;28;20049;-56
2021/08/04 05:16:36;;;;;;;20.55;12.15;;;26.90;67.30;;;;;;4166398;28;20050;-57
2021/08/04 05:18:38;;;;;;;19.52;12.77;;;26.90;67.40;;;;;;4183662;28;20076;-57
2021/08/04 05:20:40;;;;;;;18.27;13.60;;;26.90;67.30;;;;;;4183759;28;20051;-57
2021/08/04 05:22:43;;;;;;;17.08;12.43;;;26.90;67.40;;;;;;4183275;28;20050;-57
2021/08/04 05:24:46;;;;;;;18.77;11.95;;;26.90;67.30;;;;;;4183451;28;20829;-57
2021/08/04 05:26:48;;;;;;;19.40;12.07;;;26.90;67.30;;;;;;4183442;28;20056;-57
2021/08/04 05:28:51;;;;;;;17.23;13.88;;;26.90;67.30;;;;;;4183300;28;20052;-57
2021/08/04 05:30:53;;;;;;;17.52;12.98;;;26.90;67.50;;;;;;4186059;28;20063;-57
2021/08/04 05:32:55;;;;;;;17.83;12.95;;;26.90;67.90;;;;;;4196190;28;20045;-57
2021/08/04 05:34:57;;;;;;;18.88;13.27;;;26.90;68.30;;;;;;4199353;28;20049;-58
2021/08/04 05:36:59;;;;;;;18.00;12.30;;;26.80;68.30;;;;;;4184895;28;20041;-58
2021/08/04 05:39:01;;;;;;;20.67;15.95;;;26.90;68.30;;;;;;4183050;28;20045;-58
2021/08/04 05:41:03;;;;;;;42.65;36.47;;;26.90;68.10;;;;;;4182501;28;20056;-59
2021/08/04 05:43:05;;;;;;;37.83;31.10;;;26.90;68.10;;;;;;4182117;28;20054;-61
2021/08/04 05:45:08;;;;;;;37.20;27.67;;;26.90;68.00;;;;;;4182485;28;20109;-61
2021/08/04 05:47:10;;;;;;;28.83;25.52;;;27.00;67.80;;;;;;4183757;28;20117;-46
2021/08/04 05:49:12;;;;;;;40.72;29.85;;;27.00;67.70;;;;;;4183104;28;20057;-60
2021/08/04 05:51:13;;;;;;;32.33;26.55;;;27.00;67.90;;;;;;4182271;28;20053;-61
2021/08/04 05:53:15;;;;;;;30.58;27.38;;;26.90;68.10;;;;;;4182451;28;20106;-61
2021/08/04 05:55:17;;;;;;;33.80;27.75;;;26.90;68.20;;;;;;4182699;28;20055;-46
2021/08/04 05:57:19;;;;;;;33.22;24.98;;;26.90;68.20;;;;;;4183768;28;20046;-41
2021/08/04 05:59:21;;;;;;;29.75;22.10;;;27.00;67.90;;;;;;4183781;28;20128;-41
2021/08/04 06:01:23;;;;;;;28.85;23.92;;;27.00;67.70;;;;;;4183447;28;20109;-50
2021/08/04 06:03:25;;;;;;;23.02;20.33;;;27.00;67.70;;;;;;4182432;28;20056;-52
2021/08/04 06:05:28;;;;;;;24.15;18.65;;;27.10;67.80;;;;;;4182453;28;20053;-47
2021/08/04 06:07:30;;;;;;;25.65;18.85;;;27.10;67.40;;;;;;4183033;28;20046;-47
2021/08/04 06:09:32;;;;;;;23.45;19.60;;;27.10;67.80;;;;;;4183295;28;20057;-49
2021/08/04 06:11:34;;;;;;;25.00;22.38;;;27.20;67.50;;;;;;4182981;28;20084;-47
2021/08/04 06:13:36;;;;;;;37.15;32.08;;;27.20;67.70;;;;;;4182908;28;20049;-50
2021/08/04 06:15:38;;;;;;;19.92;16.85;;;27.10;68.30;;;;;;4183199;28;20050;-46
2021/08/04 06:17:40;;;;;;;17.02;13.23;;;27.20;67.60;;;;;;4183253;28;20072;-49
2021/08/04 06:19:42;;;;;;;14.30;10.55;;;27.10;67.50;;;;;;4182728;28;20051;-57
2021/08/04 06:21:44;;;;;;;9.73;7.97;;;27.20;67.60;;;;;;4182404;28;20056;-57
2021/08/04 06:23:48;;;;;;;9.75;8.35;;;27.20;67.50;;;;;;4181400;28;20041;-60
2021/08/04 06:25:50;;;;;;;6.45;5.15;;;27.20;67.60;;;;;;4181989;28;20049;-61
2021/08/04 06:28:12;;;;;;;5.22;4.18;;;27.30;67.80;;;;;;4182181;28;20078;-60
2021/08/04 06:30:14;;;;;;;6.07;4.63;;;27.30;67.70;;;;;;4182944;28;20108;-60
2021/08/04 06:32:16;;;;;;;6.38;4.50;;;27.30;67.50;;;;;;4182179;28;20073;-59
2021/08/04 06:34:19;;;;;;;5.85;3.35;;;27.40;67.70;;;;;;4182309;28;20103;-59
2021/08/04 06:36:21;;;;;;;4.78;3.60;;;27.40;67.60;;;;;;4165091;28;20110;-60
2021/08/04 06:38:24;;;;;;;5.07;3.83;;;27.40;67.50;;;;;;4148833;28;20054;-59
2021/08/04 06:40:27;;;;;;;3.28;2.58;;;27.40;67.40;;;;;;4164849;28;20050;-60
2021/08/04 06:42:30;;;;;;;3.05;2.58;;;27.40;67.50;;;;;;4164322;28;20073;-60
2021/08/04 06:44:32;;;;;;;7.35;3.58;;;27.40;67.50;;;;;;4164971;28;20117;-58
2021/08/04 06:46:36;;;;;;;9.02;7.05;;;27.40;67.60;;;;;;4165093;28;20117;-59
2021/08/04 06:48:39;;;;;;;10.85;9.05;;;27.40;67.90;;;;;;4181733;28;20052;-59
2021/08/04 06:50:41;;;;;;;11.75;8.35;;;27.40;68.50;;;;;;4165325;28;20112;-60
2021/08/04 06:52:44;;;;;;;13.57;7.50;;;27.40;68.50;;;;;;4181876;28;20049;-61
2021/08/04 06:54:48;;;;;;;10.10;7.10;;;27.40;68.10;;;;;;4164812;28;20066;-59
2021/08/04 06:56:52;;;;;;;12.60;8.32;;;27.40;68.10;;;;;;4148465;28;20046;-60
2021/08/04 06:58:54;;;;;;;8.25;7.18;;;27.40;67.70;;;;;;4165325;28;20388;-59
2021/08/04 07:00:57;;;;;;;10.50;7.82;;;27.50;67.80;;;;;;4164990;28;20100;-60
2021/08/04 07:02:59;;;;;;;9.15;8.23;;;27.40;67.40;;;;;;4148761;28;20053;-58
2021/08/04 07:05:03;;;;;;;10.13;8.00;;;27.50;67.40;;;;;;4148563;28;20078;-60
2021/08/04 07:07:05;;;;;;;11.57;7.78;;;27.50;67.50;;;;;;4165339;28;20080;-60
2021/08/04 07:09:07;;;;;;;12.40;8.77;;;27.50;67.20;;;;;;4165424;28;20080;-60
2021/08/04 07:11:10;;;;;;;11.77;8.18;;;27.50;67.20;;;;;;4149392;28;20053;-59
2021/08/04 07:13:12;;;;;;;13.50;8.82;;;27.50;67.20;;;;;;4165384;28;20077;-59
2021/08/04 07:15:17;;;;;;;15.55;8.73;;;27.50;67.60;;;;;;4148490;28;20046;-62
2021/08/04 07:17:20;;;;;;;9.88;8.57;;;27.50;67.20;;;;;;4165186;28;20073;-63
2021/08/04 07:19:23;;;;;;;13.07;9.05;;;27.60;67.30;;;;;;4148089;28;20050;-59
2021/08/04 07:21:25;;;;;;;11.15;9.52;;;27.60;67.90;;;;;;4150837;28;20490;-59
2021/08/04 07:23:28;;;;;;;13.60;8.70;;;27.50;67.80;;;;;;4164706;28;20050;-58
2021/08/04 07:25:31;;;;;;;11.70;10.30;;;27.50;67.50;;;;;;4180322;28;20088;-59
2021/08/04 07:27:34;;;;;;;18.65;11.00;;;27.50;68.00;;;;;;4181323;28;20041;-59
2021/08/04 07:29:36;;;;;;;15.60;10.90;;;27.50;67.90;;;;;;4147959;28;20053;-59
2021/08/04 07:31:39;;;;;;;12.77;11.25;;;27.50;67.90;;;;;;4164139;28;20049;-60
2021/08/04 07:33:42;;;;;;;12.35;10.43;;;27.50;68.10;;;;;;4148110;28;20055;-61
2021/08/04 07:35:44;;;;;;;19.33;11.40;;;27.50;68.10;;;;;;4164256;28;20069;-62
2021/08/04 07:37:46;;;;;;;13.98;10.90;;;27.50;68.00;;;;;;4179995;28;20069;-61
2021/08/04 07:39:49;;;;;;;16.17;11.32;;;27.50;68.10;;;;;;4181224;28;20112;-61
2021/08/04 07:41:51;;;;;;;16.63;11.77;;;27.50;68.50;;;;;;4148183;28;20047;-60
2021/08/04 07:43:54;;;;;;;20.50;11.90;;;27.50;68.10;;;;;;4181253;28;20062;-60
2021/08/04 07:45:56;;;;;;;20.65;11.80;;;27.50;68.30;;;;;;4181080;28;20049;-60
2021/08/04 07:47:59;;;;;;;21.60;12.27;;;27.50;68.30;;;;;;4181319;28;20050;-58
2021/08/04 07:50:01;;;;;;;21.35;12.15;;;27.50;68.70;;;;;;4164171;28;20057;-59
2021/08/04 07:52:04;;;;;;;14.90;12.23;;;27.50;68.50;;;;;;4180887;28;20054;-57
2021/08/04 07:54:06;;;;;;;17.92;11.98;;;27.50;68.80;;;;;;4164334;28;20546;-60
2021/08/04 07:56:09;;;;;;;17.05;12.10;;;27.50;68.60;;;;;;4181044;28;20441;-60
2021/08/04 07:58:11;;;;;;;14.93;12.05;;;27.50;68.70;;;;;;4181187;28;20049;-60
2021/08/04 08:00:14;;;;;;;15.77;12.25;;;27.50;68.80;;;;;;4181003;28;20045;-59
2021/08/04 08:02:17;;;;;;;15.55;11.25;;;27.50;68.30;;;;;;4180254;28;20057;-60
2021/08/04 08:04:20;;;;;;;19.42;12.10;;;27.50;68.60;;;;;;4181032;28;20045;-60
2021/08/04 08:06:23;;;;;;;13.00;11.60;;;27.50;68.20;;;;;;4182672;28;20072;-57
2021/08/04 08:08:26;;;;;;;17.73;13.00;;;27.60;68.20;;;;;;4167265;28;20118;-59
2021/08/04 08:10:29;;;;;;;16.42;12.68;;;27.60;68.30;;;;;;4168094;28;20110;-60
2021/08/04 08:12:32;;;;;;;16.77;11.52;;;27.60;68.80;;;;;;4183766;28;20049;-47
2021/08/04 08:14:35;;;;;;;17.77;11.80;;;27.60;68.60;;;;;;4184029;28;20080;-46
2021/08/04 08:16:37;;;;;;;21.05;12.05;;;27.60;68.30;;;;;;4183223;28;20159;-46
2021/08/04 08:18:40;;;;;;;20.83;12.98;;;27.60;68.30;;;;;;4150144;28;20057;-58
2021/08/04 08:20:43;;;;;;;20.58;12.38;;;27.60;68.40;;;;;;4183365;28;20045;-58
2021/08/04 08:22:47;;;;;;;21.27;13.68;;;27.60;68.50;;;;;;4150299;28;20047;-58
2021/08/04 08:24:49;;;;;;;17.83;12.40;;;27.60;68.30;;;;;;4166948;28;20057;-49
2021/08/04 08:26:51;;;;;;;16.63;12.50;;;27.60;68.90;;;;;;4151176;28;20050;-46
2021/08/04 08:28:54;;;;;;;22.73;13.52;;;27.50;68.60;;;;;;4184481;28;20052;-43
2021/08/04 08:30:56;;;;;;;20.10;14.45;;;27.60;68.70;;;;;;4184824;28;20056;-46
2021/08/04 08:32:58;;;;;;;19.30;14.15;;;27.60;68.60;;;;;;4184380;28;20053;-45
2021/08/04 08:35:01;;;;;;;21.73;14.80;;;27.70;68.40;;;;;;4167437;28;20073;-43
2021/08/04 08:37:04;;;;;;;16.15;13.93;;;27.70;68.30;;;;;;4184827;28;20045;-47
2021/08/04 08:39:08;;;;;;;17.50;14.35;;;27.70;68.40;;;;;;4167466;28;20054;-47
2021/08/04 08:41:10;;;;;;;23.20;15.15;;;27.70;68.10;;;;;;4184459;28;20061;-44
2021/08/04 08:43:16;;;;;;;23.50;15.20;;;27.70;68.40;;;;;;4184376;28;20053;-41
2021/08/04 08:45:19;;;;;;;20.45;14.52;;;27.70;67.90;;;;;;4184791;28;20061;-48
2021/08/04 08:47:22;;;;;;;20.08;15.38;;;27.70;68.10;;;;;;4167392;28;20049;-48
2021/08/04 08:49:27;;;;;;;20.53;15.90;;;27.70;68.10;;;;;;4184585;28;20049;-47
2021/08/04 08:51:29;;;;;;;21.50;14.68;;;27.60;68.50;;;;;;4184571;28;20137;-45
2021/08/04 08:53:33;;;;;;;19.77;14.77;;;27.60;68.20;;;;;;4135068;28;20085;-45
2021/08/04 08:55:40;;;;;;;21.77;14.02;;;27.60;67.90;;;;;;4167803;28;20045;-46
2021/08/04 08:57:44;;;;;;;22.58;14.25;;;27.60;68.00;;;;;;4151628;28;20078;-47
2021/08/04 08:59:48;;;;;;;17.13;14.40;;;27.60;68.00;;;;;;4167322;28;20073;-47
2021/08/04 09:02:18;;;;;;;20.67;14.33;;;27.60;68.30;;;;;;4184091;28;20052;-47
2021/08/04 09:04:34;;;;;;;19.45;13.70;;;27.60;68.10;;;;;;4150699;28;20105;-51
2021/08/04 09:07:03;;;;;;;19.23;13.73;;;27.70;68.00;;;;;;4165957;28;20381;-50
2021/08/04 09:09:21;;;;;;;18.42;13.63;;;27.70;67.90;;;;;;4163582;28;20045;-48
2021/08/04 09:11:52;;;;;;;25.10;14.70;;;27.70;67.80;;;;;;4165945;28;20073;-51
2021/08/04 09:14:05;;;;;;;16.95;13.73;;;27.70;67.50;;;;;;4179792;28;20113;-55
2021/08/04 09:16:10;;;;;;;19.85;13.45;;;27.70;67.50;;;;;;4166015;28;20577;-59
2021/08/04 09:18:15;;;;;;;17.00;13.60;;;27.80;67.40;;;;;;4165467;28;20054;-59
2021/08/04 09:20:21;;;;;;;15.40;13.13;;;27.80;67.50;;;;;;4166181;28;20050;-59
2021/08/04 09:22:27;;;;;;;24.50;13.23;;;27.80;67.20;;;;;;4165875;28;20050;-60
2021/08/04 09:24:50;;;;;;;15.48;12.05;;;27.80;67.20;;;;;;4166041;28;20151;-60
2021/08/04 09:26:55;;;;;;;16.30;12.75;;;27.80;67.20;;;;;;4165934;28;20049;-49
2021/08/04 09:29:04;;;;;;;14.90;13.13;;;27.80;67.10;;;;;;4149529;28;20061;-51
2021/08/04 09:31:06;;;;;;;17.80;12.55;;;27.80;66.90;;;;;;4165787;28;20056;-52
2021/08/04 09:33:14;;;;;;;18.58;13.65;;;27.80;67.00;;;;;;4182249;28;20041;-48
2021/08/04 09:35:22;;;;;;;14.45;12.65;;;27.80;66.80;;;;;;4182159;28;20073;-51
2021/08/04 09:37:26;;;;;;;16.10;12.05;;;27.90;66.80;;;;;;4183075;28;20084;-52
2021/08/04 09:39:29;;;;;;;16.50;12.75;;;27.90;66.90;;;;;;4133579;28;20047;-52
2021/08/04 09:41:32;;;;;;;18.85;11.98;;;27.80;66.80;;;;;;4149386;28;20074;-51
2021/08/04 09:43:35;;;;;;;17.23;12.02;;;27.80;66.70;;;;;;4182118;28;20049;-51
2021/08/04 09:45:54;;;;;;;14.50;12.32;;;27.80;66.70;;;;;;4180788;28;20053;-53
2021/08/04 09:48:08;;;;;;;13.30;11.07;;;27.90;66.80;;;;;;4182053;28;20109;-56
2021/08/04 09:50:12;;;;;;;17.00;12.30;;;27.90;66.60;;;;;;4165493;28;20082;-56
2021/08/04 09:52:14;;;;;;;14.98;11.48;;;27.90;66.70;;;;;;4149504;28;20062;-56
2021/08/04 09:54:17;;;;;;;13.73;12.25;;;27.90;66.60;;;;;;4182336;28;20053;-56
2021/08/04 09:56:21;;;;;;;16.73;12.57;;;27.90;66.80;;;;;;4182683;28;20045;-56
2021/08/04 09:58:24;;;;;;;12.95;11.63;;;27.90;66.50;;;;;;4165230;28;20077;-56
2021/08/04 10:00:27;;;;;;;13.65;12.07;;;27.90;66.60;;;;;;4182432;28;20045;-56
2021/08/04 10:02:31;;;;;;;12.32;10.90;;;27.90;66.50;;;;;;4164813;28;20050;-56
2021/08/04 10:04:35;;;;;;;13.18;11.70;;;27.90;66.60;;;;;;4182633;28;20080;-56
2021/08/04 10:06:40;;;;;;;15.30;11.57;;;27.90;66.60;;;;;;4165233;28;20057;-52
2021/08/04 10:08:42;;;;;;;15.60;11.27;;;27.90;66.60;;;;;;4165084;28;20050;-47
2021/08/04 10:10:56;;;;;;;17.63;11.55;;;27.90;66.50;;;;;;4148629;28;20137;-49
2021/08/04 10:13:01;;;;;;;12.13;10.93;;;27.90;66.50;;;;;;4182036;28;20050;-48
2021/08/04 10:15:05;;;;;;;13.25;11.85;;;27.90;66.40;;;;;;4165108;28;20379;-49
2021/08/04 10:17:08;;;;;;;13.55;11.32;;;27.90;66.30;;;;;;4148764;28;20077;-47
2021/08/04 10:19:12;;;;;;;15.43;11.25;;;27.90;66.30;;;;;;4164930;28;20076;-46
2021/08/04 10:21:16;;;;;;;14.75;11.52;;;27.90;66.40;;;;;;4182072;28;20046;-47
2021/08/04 10:23:20;;;;;;;18.23;11.18;;;27.90;66.30;;;;;;4180491;28;20049;-48
2021/08/04 10:25:22;;;;;;;14.63;11.65;;;27.90;66.30;;;;;;4164743;28;20103;-48
2021/08/04 10:27:26;;;;;;;12.85;11.10;;;27.90;66.20;;;;;;4164696;28;20053;-53
2021/08/04 10:29:30;;;;;;;15.13;12.27;;;27.90;65.50;;;;;;4164913;28;20058;-52